createdAt,value
2024-01-05T00:00:36.814Z,100.00
2024-01-05T00:03:03.691Z,100.00
2024-01-05T00:05:30.217Z,100.00
2024-01-05T00:07:56.656Z,100.00
2024-01-05T00:10:23.364Z,100.00
2024-01-05T00:12:49.791Z,100.00
2024-01-05T00:15:16.432Z,100.00
2024-01-05T00:17:42.956Z,100.00
2024-01-05T00:20:10.124Z,100.00
2024-01-05T00:22:36.580Z,100.00
2024-01-05T00:25:04.357Z,100.00
2024-01-05T00:27:31.323Z,100.00
2024-01-05T00:29:58.012Z,100.00
2024-01-05T00:32:24.442Z,100.00
2024-01-05T00:34:51.107Z,100.00
2024-01-05T00:37:17.640Z,100.00
2024-01-05T00:39:44.160Z,100.00
2024-01-05T00:42:11.471Z,100.00
2024-01-05T00:44:38.031Z,100.00
2024-01-05T00:47:04.644Z,100.00
2024-01-05T00:49:31.239Z,100.00
2024-01-05T00:51:57.855Z,100.00
2024-01-05T00:54:26.398Z,100.00
2024-01-05T00:56:52.983Z,100.00
2024-01-05T00:59:20.705Z,100.00
2024-01-05T01:01:47.756Z,100.00
2024-01-05T01:04:15.655Z,100.00
2024-01-05T01:06:42.320Z,100.00
2024-01-05T01:09:09.280Z,100.00
2024-01-05T01:11:35.758Z,100.00
2024-01-05T01:14:02.186Z,100.00
2024-01-05T01:16:28.878Z,100.00
2024-01-05T01:18:55.594Z,100.00
2024-01-05T01:21:22.183Z,100.00
2024-01-05T01:23:48.619Z,100.00
2024-01-05T01:26:15.068Z,100.00
2024-01-05T01:28:41.425Z,100.00
2024-01-05T01:31:07.996Z,100.00
2024-01-05T01:33:34.788Z,100.00
2024-01-05T01:36:01.359Z,100.00
2024-01-05T01:38:27.760Z,100.00
2024-01-05T01:40:56.994Z,100.00
2024-01-05T01:43:26.412Z,100.00
2024-01-05T01:45:54.336Z,100.00
2024-01-05T01:48:21.678Z,100.00
2024-01-05T01:50:50.558Z,100.00
2024-01-05T01:53:21.085Z,100.00
2024-01-05T01:55:49.950Z,100.00
2024-01-05T01:58:20.779Z,100.00
2024-01-05T02:00:47.485Z,100.00
2024-01-05T02:03:18.553Z,100.00
2024-01-05T02:05:47.323Z,100.00
2024-01-05T02:08:14.214Z,100.00
2024-01-05T02:10:42.143Z,100.00
2024-01-05T02:13:08.973Z,100.00
2024-01-05T02:15:35.444Z,100.00
2024-01-05T02:18:12.975Z,100.00
2024-01-05T02:20:39.581Z,100.00
2024-01-05T02:23:12.860Z,100.00
2024-01-05T02:25:40.429Z,100.00
2024-01-05T02:28:06.795Z,100.00
2024-01-05T02:30:33.237Z,100.00
2024-01-05T02:32:59.797Z,100.00
2024-01-05T02:35:26.407Z,100.00
2024-01-05T02:37:52.863Z,100.00
2024-01-05T02:40:19.447Z,100.00
2024-01-05T02:42:45.979Z,100.00
2024-01-05T02:45:12.587Z,100.00
2024-01-05T02:47:39.099Z,100.00
2024-01-05T02:50:06.190Z,100.00
2024-01-05T02:52:32.651Z,100.00
2024-01-05T02:54:59.037Z,100.00
2024-01-05T02:57:25.514Z,100.00
2024-01-05T02:59:51.941Z,100.00
2024-01-05T03:02:18.368Z,100.00
2024-01-05T03:04:45.208Z,100.00
2024-01-05T03:07:11.766Z,100.00
2024-01-05T03:09:38.322Z,100.00
2024-01-05T03:12:05.146Z,100.00
2024-01-05T03:14:31.619Z,100.00
2024-01-05T03:16:58.001Z,100.00
2024-01-05T03:19:24.638Z,100.00
2024-01-05T03:21:51.272Z,100.00
2024-01-05T03:24:17.799Z,100.00
2024-01-05T03:26:45.092Z,100.00
2024-01-05T03:29:11.736Z,100.00
2024-01-05T03:31:38.309Z,100.00
2024-01-05T03:34:05.314Z,100.00
2024-01-05T03:36:31.960Z,100.00
2024-01-05T03:38:59.007Z,100.00
2024-01-05T03:41:25.492Z,100.00
2024-01-05T03:43:51.915Z,100.00
2024-01-05T03:46:18.357Z,100.00
2024-01-05T03:48:44.958Z,100.00
2024-01-05T03:51:11.538Z,100.00
2024-01-05T03:53:37.991Z,100.00
2024-01-05T03:56:04.966Z,100.00
2024-01-05T03:58:31.476Z,100.00
2024-01-05T04:00:57.994Z,100.00
2024-01-05T04:03:25.094Z,100.00
2024-01-05T04:05:51.629Z,100.00
2024-01-05T04:08:18.208Z,100.00
2024-01-05T04:10:44.661Z,100.00
2024-01-05T04:13:11.130Z,100.00
2024-01-05T04:15:38.969Z,100.00
2024-01-05T04:18:06.653Z,100.00
2024-01-05T04:20:34.043Z,100.00
2024-01-05T04:23:01.533Z,100.00
2024-01-05T04:25:27.977Z,100.00
2024-01-05T04:27:54.410Z,100.00
2024-01-05T04:30:25.381Z,100.00
2024-01-05T04:32:52.215Z,100.00
2024-01-05T04:35:18.723Z,100.00
2024-01-05T04:37:45.223Z,100.00
2024-01-05T04:40:12.139Z,100.00
2024-01-05T04:42:38.745Z,100.00
2024-01-05T04:45:05.584Z,100.00
2024-01-05T04:47:33.068Z,100.00
2024-01-05T04:49:59.654Z,100.00
2024-01-05T04:52:26.269Z,100.00
2024-01-05T04:54:52.708Z,100.00
2024-01-05T04:57:19.229Z,100.00
2024-01-05T04:59:45.652Z,100.00
2024-01-05T05:02:12.107Z,100.00
2024-01-05T05:04:38.473Z,100.00
2024-01-05T05:07:05.442Z,100.00
2024-01-05T05:09:31.848Z,100.00
2024-01-05T05:11:58.369Z,100.00
2024-01-05T05:14:24.824Z,100.00
2024-01-05T05:16:51.426Z,100.00
2024-01-05T05:19:18.046Z,100.00
2024-01-05T05:21:44.838Z,100.00
2024-01-05T05:24:12.765Z,100.00
2024-01-05T05:26:39.189Z,100.00
2024-01-05T05:29:05.637Z,100.00
2024-01-05T05:31:32.161Z,100.00
2024-01-05T05:33:58.746Z,100.00
2024-01-05T05:36:25.486Z,100.00
2024-01-05T05:38:51.984Z,100.00
2024-01-05T05:41:18.449Z,100.00
2024-01-05T05:43:46.926Z,100.00
2024-01-05T05:46:13.446Z,100.00
2024-01-05T05:48:40.028Z,100.00
2024-01-05T05:51:06.585Z,100.00
2024-01-05T05:53:33.047Z,100.00
2024-01-05T05:55:59.487Z,100.00
2024-01-05T05:58:27.312Z,100.00
2024-01-05T06:00:53.775Z,100.00
2024-01-05T06:03:20.366Z,100.00
2024-01-05T06:05:46.818Z,100.00
2024-01-05T06:08:13.252Z,100.00
2024-01-05T06:10:39.666Z,100.00
2024-01-05T06:13:06.248Z,100.00
2024-01-05T06:15:32.921Z,100.00
2024-01-05T06:17:59.444Z,100.00
2024-01-05T06:20:26.208Z,100.00
2024-01-05T06:22:52.771Z,100.00
2024-01-05T06:25:19.227Z,100.00
2024-01-05T06:27:45.719Z,100.00
2024-01-05T06:30:12.536Z,100.00
2024-01-05T06:32:42.057Z,100.00
2024-01-05T06:35:08.857Z,100.00
2024-01-05T06:37:35.642Z,99.88
2024-01-05T06:40:02.074Z,99.60
2024-01-05T06:42:28.738Z,99.30
2024-01-05T06:44:55.287Z,99.08
2024-01-05T06:47:21.872Z,99.29
2024-01-05T06:49:48.574Z,99.56
2024-01-05T06:52:15.287Z,99.46
2024-01-05T06:54:41.729Z,99.43
2024-01-05T06:57:08.477Z,99.76
2024-01-05T06:59:37.437Z,99.87
2024-01-05T07:02:04.087Z,99.85
2024-01-05T07:04:30.501Z,99.81
2024-01-05T07:06:57.588Z,99.67
2024-01-05T07:09:24.310Z,99.70
2024-01-05T07:11:51.485Z,99.68
2024-01-05T07:14:18.899Z,99.55
2024-01-05T07:16:45.291Z,99.39
2024-01-05T07:19:11.820Z,99.22
2024-01-05T07:21:48.348Z,99.02
2024-01-05T07:24:16.587Z,98.81
2024-01-05T07:26:43.983Z,98.88
2024-01-05T07:29:10.570Z,98.48
2024-01-05T07:31:37.189Z,98.80
2024-01-05T07:34:04.209Z,98.35
2024-01-05T07:36:30.879Z,97.89
2024-01-05T07:39:00.341Z,97.42
2024-01-05T07:41:29.925Z,98.03
2024-01-05T07:43:56.635Z,97.91
2024-01-05T07:46:26.686Z,97.67
2024-01-05T07:48:53.309Z,98.10
2024-01-05T07:51:20.672Z,98.62
2024-01-05T07:53:49.593Z,99.31
2024-01-05T07:56:18.358Z,100.00
2024-01-05T07:58:47.933Z,100.00
2024-01-05T08:01:18.412Z,100.00
2024-01-05T08:03:45.823Z,100.00
2024-01-05T08:06:20.106Z,100.00
2024-01-05T08:08:48.066Z,100.00
2024-01-05T08:11:15.247Z,100.00
2024-01-05T08:13:43.305Z,99.82
2024-01-05T08:16:10.857Z,99.38
2024-01-05T08:18:38.088Z,98.40
2024-01-05T08:21:05.118Z,98.17
2024-01-05T08:23:33.070Z,97.82
2024-01-05T08:25:59.920Z,97.29
2024-01-05T08:28:27.171Z,97.17
2024-01-05T08:30:57.338Z,97.53
2024-01-05T08:33:24.380Z,96.63
2024-01-05T08:35:51.056Z,97.39
2024-01-05T08:38:17.521Z,96.55
2024-01-05T08:40:45.617Z,97.17
2024-01-05T08:43:12.089Z,96.96
2024-01-05T08:45:38.573Z,96.87
2024-01-05T08:48:06.495Z,97.45
2024-01-05T08:50:33.384Z,97.18
2024-01-05T08:52:59.877Z,98.08
2024-01-05T08:55:26.385Z,97.60
2024-01-05T08:57:52.853Z,97.83
2024-01-05T09:00:20.195Z,97.58
2024-01-05T09:02:46.908Z,97.57
2024-01-05T09:05:13.527Z,96.78
2024-01-05T09:07:40.023Z,96.59
2024-01-05T09:10:09.324Z,96.42
2024-01-05T09:12:36.241Z,96.60
2024-01-05T09:15:03.136Z,95.96
2024-01-05T09:17:30.176Z,97.11
2024-01-05T09:19:56.723Z,97.19
2024-01-05T09:22:23.907Z,97.40
2024-01-05T09:24:50.351Z,97.45
2024-01-05T09:27:16.799Z,97.92
2024-01-05T09:29:43.257Z,97.72
2024-01-05T09:32:10.082Z,97.86
2024-01-05T09:34:36.931Z,98.26
2024-01-05T09:37:03.513Z,98.53
2024-01-05T09:39:29.999Z,98.57
2024-01-05T09:41:56.604Z,98.97
2024-01-05T09:44:23.698Z,98.84
2024-01-05T09:46:50.828Z,99.05
2024-01-05T09:49:18.355Z,99.30
2024-01-05T09:51:45.979Z,99.87
2024-01-05T09:54:13.922Z,99.73
2024-01-05T09:56:41.214Z,99.56
2024-01-05T09:59:08.769Z,99.84
2024-01-05T10:01:38.208Z,99.82
2024-01-05T10:04:05.009Z,100.00
2024-01-05T10:06:32.142Z,99.94
2024-01-05T10:09:00.139Z,100.00
2024-01-05T10:11:34.264Z,100.00
2024-01-05T10:14:06.673Z,99.92
2024-01-05T10:16:40.397Z,100.00
2024-01-05T10:19:13.840Z,100.00
2024-01-05T10:21:45.329Z,100.00
2024-01-05T10:24:30.625Z,100.00
2024-01-05T10:27:03.700Z,100.00
2024-01-05T10:29:33.334Z,100.00
2024-01-05T10:32:19.728Z,100.00
2024-01-05T10:34:47.969Z,100.00
2024-01-05T10:37:15.749Z,100.00
2024-01-05T10:39:52.764Z,100.00
2024-01-05T10:42:27.980Z,100.00
2024-01-05T10:44:56.651Z,100.00
2024-01-05T10:47:25.214Z,100.00
2024-01-05T10:49:53.348Z,100.00
2024-01-05T10:52:21.715Z,100.00
2024-01-05T10:54:50.112Z,100.00
2024-01-05T10:57:18.341Z,100.00
2024-01-05T10:59:52.089Z,100.00
2024-01-05T11:02:28.926Z,100.00
2024-01-05T11:05:08.855Z,100.00
2024-01-05T11:07:36.240Z,100.00
2024-01-05T11:10:22.129Z,100.00
2024-01-05T11:13:13.457Z,100.00
2024-01-05T11:16:05.150Z,100.00
2024-01-05T11:18:59.574Z,100.00
2024-01-05T11:21:47.827Z,100.00
2024-01-05T11:24:18.204Z,100.00
2024-01-05T11:26:46.338Z,100.00
2024-01-05T11:29:13.887Z,100.00
2024-01-05T11:31:46.294Z,100.00
2024-01-05T11:34:38.208Z,100.00
2024-01-05T11:37:08.253Z,100.00
2024-01-05T11:39:46.710Z,100.00
2024-01-05T11:42:42.555Z,100.00
2024-01-05T11:45:12.796Z,100.00
2024-01-05T11:47:46.487Z,100.00
2024-01-05T11:50:34.636Z,100.00
2024-01-05T11:53:14.622Z,100.00
2024-01-05T11:55:54.766Z,100.00
2024-01-05T11:58:28.665Z,100.00
2024-01-05T12:00:57.339Z,100.00
2024-01-05T12:03:25.998Z,100.00
2024-01-05T12:05:57.231Z,100.00
2024-01-05T12:08:24.786Z,100.00
2024-01-05T12:10:56.032Z,100.00
2024-01-05T12:13:25.874Z,100.00
2024-01-05T12:16:01.133Z,100.00
2024-01-05T12:18:37.058Z,100.00
2024-01-05T12:21:07.376Z,100.00
2024-01-05T12:23:35.225Z,100.00
2024-01-05T12:26:06.596Z,100.00
2024-01-05T12:28:42.931Z,100.00
2024-01-05T12:31:11.585Z,100.00
2024-01-05T12:33:39.862Z,100.00
2024-01-05T12:36:11.255Z,100.00
2024-01-05T12:38:38.195Z,100.00
2024-01-05T12:41:15.457Z,100.00
2024-01-05T12:43:45.556Z,100.00
2024-01-05T12:46:12.047Z,100.00
2024-01-05T12:48:39.194Z,100.00
2024-01-05T12:51:19.942Z,100.00
2024-01-05T12:53:50.503Z,100.00
2024-01-05T12:56:21.500Z,100.00
2024-01-05T12:58:48.503Z,100.00
2024-01-05T13:01:22.525Z,100.00
2024-01-05T13:03:56.463Z,100.00
2024-01-05T13:06:25.732Z,100.00
2024-01-05T13:08:52.643Z,100.00
2024-01-05T13:11:21.272Z,100.00
2024-01-05T13:13:52.046Z,100.00
2024-01-05T13:16:19.135Z,100.00
2024-01-05T13:18:46.036Z,100.00
2024-01-05T13:21:12.701Z,100.00
2024-01-05T13:23:41.491Z,100.00
2024-01-05T13:26:08.186Z,100.00
2024-01-05T13:28:38.203Z,100.00
2024-01-05T13:31:05.408Z,100.00
2024-01-05T13:33:33.269Z,100.00
2024-01-05T13:36:00.057Z,100.00
2024-01-05T13:38:26.607Z,100.00
2024-01-05T13:40:53.099Z,100.00
2024-01-05T13:43:19.663Z,100.00
2024-01-05T13:45:47.396Z,100.00
2024-01-05T13:48:13.931Z,100.00
2024-01-05T13:50:40.454Z,100.00
2024-01-05T13:53:12.197Z,100.00
2024-01-05T13:55:38.720Z,100.00
2024-01-05T13:58:05.248Z,100.00
2024-01-05T14:00:31.750Z,100.00
2024-01-05T14:02:58.270Z,100.00
2024-01-05T14:05:24.876Z,100.00
2024-01-05T14:07:51.256Z,100.00
2024-01-05T14:10:17.692Z,100.00
2024-01-05T14:12:44.201Z,100.00
2024-01-05T14:15:14.990Z,99.95
2024-01-05T14:17:41.647Z,100.00
2024-01-05T14:20:09.970Z,99.91
2024-01-05T14:22:36.714Z,99.96
2024-01-05T14:25:05.382Z,99.86
2024-01-05T14:27:31.808Z,99.54
2024-01-05T14:29:58.209Z,99.62
2024-01-05T14:32:25.090Z,99.74
2024-01-05T14:34:51.749Z,99.68
2024-01-05T14:37:18.189Z,99.50
2024-01-05T14:39:44.754Z,99.71
2024-01-05T14:42:11.243Z,99.78
2024-01-05T14:44:37.779Z,99.72
2024-01-05T14:47:04.872Z,99.71
2024-01-05T14:49:32.000Z,99.71
2024-01-05T14:52:01.243Z,99.52
2024-01-05T14:54:28.512Z,99.29
2024-01-05T14:56:55.375Z,99.28
2024-01-05T14:59:25.036Z,99.19
2024-01-05T15:01:51.507Z,99.03
2024-01-05T15:04:18.138Z,98.66
2024-01-05T15:06:44.729Z,98.60
2024-01-05T15:09:13.008Z,98.56
2024-01-05T15:11:39.678Z,98.61
2024-01-05T15:14:06.209Z,98.61
2024-01-05T15:16:42.054Z,98.99
2024-01-05T15:19:09.026Z,98.56
2024-01-05T15:21:35.914Z,98.52
2024-01-05T15:24:02.835Z,98.50
2024-01-05T15:26:29.316Z,98.21
2024-01-05T15:28:55.765Z,98.34
2024-01-05T15:31:22.578Z,98.48
2024-01-05T15:33:50.599Z,98.17
2024-01-05T15:36:18.623Z,97.90
2024-01-05T15:38:46.169Z,97.68
2024-01-05T15:41:13.467Z,97.27
2024-01-05T15:43:40.742Z,97.87
2024-01-05T15:46:09.765Z,98.00
2024-01-05T15:48:36.773Z,97.85
2024-01-05T15:51:03.492Z,98.11
2024-01-05T15:53:30.011Z,98.00
2024-01-05T15:55:59.057Z,97.99
2024-01-05T15:58:26.010Z,97.75
2024-01-05T16:00:52.575Z,97.17
2024-01-05T16:03:19.169Z,97.14
2024-01-05T16:05:45.773Z,96.61
2024-01-05T16:08:12.374Z,96.61
2024-01-05T16:10:38.862Z,96.22
2024-01-05T16:13:07.174Z,95.78
2024-01-05T16:15:33.762Z,96.25
2024-01-05T16:18:00.829Z,96.33
2024-01-05T16:20:27.412Z,96.49
2024-01-05T16:22:54.050Z,96.60
2024-01-05T16:25:20.470Z,96.47
2024-01-05T16:27:47.018Z,96.42
2024-01-05T16:30:14.898Z,96.19
2024-01-05T16:32:43.617Z,95.91
2024-01-05T16:35:10.563Z,95.64
2024-01-05T16:37:38.480Z,95.98
2024-01-05T16:40:06.894Z,95.63
2024-01-05T16:42:33.379Z,95.09
2024-01-05T16:45:00.099Z,94.94
2024-01-05T16:47:26.769Z,94.88
2024-01-05T16:49:53.397Z,94.91
2024-01-05T16:52:20.215Z,95.08
2024-01-05T16:54:46.699Z,95.10
2024-01-05T16:57:13.246Z,95.52
2024-01-05T16:59:40.642Z,94.69
2024-01-05T17:02:08.700Z,94.60
2024-01-05T17:04:35.228Z,94.63
2024-01-05T17:07:01.822Z,94.37
2024-01-05T17:09:28.402Z,94.44
2024-01-05T17:11:57.985Z,93.84
2024-01-05T17:14:24.922Z,92.98
2024-01-05T17:16:51.428Z,93.33
2024-01-05T17:19:18.096Z,93.78
2024-01-05T17:21:44.898Z,93.16
2024-01-05T17:24:11.475Z,93.13
2024-01-05T17:26:39.653Z,93.37
2024-01-05T17:29:06.808Z,93.62
2024-01-05T17:31:33.441Z,92.70
2024-01-05T17:34:00.356Z,92.62
2024-01-05T17:36:28.305Z,92.40
2024-01-05T17:38:56.053Z,92.53
2024-01-05T17:41:22.586Z,92.51
2024-01-05T17:43:49.249Z,91.90
2024-01-05T17:46:15.675Z,91.78
2024-01-05T17:48:43.433Z,91.24
2024-01-05T17:51:10.431Z,91.94
2024-01-05T17:53:39.419Z,91.15
2024-01-05T17:56:06.672Z,91.76
2024-01-05T17:58:33.202Z,91.71
2024-01-05T18:00:59.727Z,91.90
2024-01-05T18:03:28.149Z,92.35
2024-01-05T18:05:54.800Z,92.55
2024-01-05T18:08:21.221Z,92.42
2024-01-05T18:10:47.590Z,92.19
2024-01-05T18:13:15.254Z,92.83
2024-01-05T18:15:41.900Z,93.04
2024-01-05T18:18:09.042Z,93.16
2024-01-05T18:20:35.568Z,92.82
2024-01-05T18:23:02.432Z,92.33
2024-01-05T18:25:31.266Z,91.80
2024-01-05T18:28:01.215Z,91.65
2024-01-05T18:30:27.982Z,91.76
2024-01-05T18:32:54.423Z,91.95
2024-01-05T18:35:21.038Z,91.88
2024-01-05T18:37:47.465Z,91.57
2024-01-05T18:40:13.916Z,92.48
2024-01-05T18:42:40.834Z,92.31
2024-01-05T18:45:07.582Z,92.20
2024-01-05T18:47:34.130Z,92.54
2024-01-05T18:50:00.659Z,92.54
2024-01-05T18:52:27.110Z,92.81
2024-01-05T18:54:53.711Z,92.85
2024-01-05T18:57:20.216Z,92.49
2024-01-05T18:59:46.678Z,91.68
2024-01-05T19:02:13.130Z,92.21
2024-01-05T19:04:40.405Z,92.67
2024-01-05T19:07:07.400Z,92.52
2024-01-05T19:09:33.887Z,92.04
2024-01-05T19:12:00.304Z,91.97
2024-01-05T19:14:26.809Z,91.61
2024-01-05T19:16:53.256Z,91.99
2024-01-05T19:19:20.899Z,92.06
2024-01-05T19:21:55.562Z,92.12
2024-01-05T19:24:24.523Z,92.32
2024-01-05T19:26:52.189Z,92.45
2024-01-05T19:29:18.688Z,92.25
2024-01-05T19:31:45.238Z,91.78
2024-01-05T19:34:12.970Z,91.46
2024-01-05T19:36:44.436Z,90.93
2024-01-05T19:39:12.090Z,90.77
2024-01-05T19:41:43.438Z,91.11
2024-01-05T19:44:09.989Z,90.32
2024-01-05T19:46:36.744Z,90.43
2024-01-05T19:49:03.347Z,90.88
2024-01-05T19:51:29.907Z,91.11
2024-01-05T19:53:56.659Z,90.67
2024-01-05T19:56:23.046Z,91.27
2024-01-05T19:58:50.982Z,91.04
2024-01-05T20:01:18.163Z,90.87
2024-01-05T20:03:44.969Z,90.64
2024-01-05T20:06:13.090Z,91.13
2024-01-05T20:08:39.641Z,90.78
2024-01-05T20:11:09.705Z,90.63
2024-01-05T20:13:36.122Z,90.91
2024-01-05T20:16:02.617Z,91.62
2024-01-05T20:18:29.185Z,90.91
2024-01-05T20:20:55.691Z,91.42
2024-01-05T20:23:22.073Z,91.01
2024-01-05T20:25:48.539Z,90.72
2024-01-05T20:28:14.988Z,90.20
2024-01-05T20:30:43.964Z,90.44
2024-01-05T20:33:10.660Z,90.78
2024-01-05T20:35:37.494Z,90.92
2024-01-05T20:38:04.622Z,90.98
2024-01-05T20:40:31.093Z,90.16
2024-01-05T20:42:59.807Z,90.95
2024-01-05T20:45:26.305Z,91.10
2024-01-05T20:47:52.812Z,90.62
2024-01-05T20:50:19.357Z,90.46
2024-01-05T20:52:45.846Z,90.27
2024-01-05T20:55:12.281Z,91.30
2024-01-05T20:57:38.901Z,91.02
2024-01-05T21:00:06.676Z,91.20
2024-01-05T21:02:33.283Z,91.18
2024-01-05T21:04:59.824Z,91.52
2024-01-05T21:07:26.644Z,91.54
2024-01-05T21:09:53.194Z,91.16
2024-01-05T21:12:20.507Z,90.78
2024-01-05T21:14:47.567Z,90.02
2024-01-05T21:17:13.981Z,90.52
2024-01-05T21:19:41.232Z,90.05
2024-01-05T21:22:08.183Z,90.47
2024-01-05T21:24:40.359Z,90.12
2024-01-05T21:27:06.866Z,90.12
2024-01-05T21:29:33.374Z,89.55
2024-01-05T21:31:59.842Z,89.40
2024-01-05T21:34:26.319Z,88.70
2024-01-05T21:36:52.843Z,87.55
2024-01-05T21:39:19.344Z,87.25
2024-01-05T21:41:47.690Z,87.96
2024-01-05T21:44:14.782Z,88.19
2024-01-05T21:46:41.323Z,88.04
2024-01-05T21:49:09.588Z,87.53
2024-01-05T21:51:37.045Z,87.51
2024-01-05T21:54:03.545Z,88.01
2024-01-05T21:56:30.024Z,86.82
2024-01-05T21:58:56.549Z,87.34
2024-01-05T22:01:23.403Z,87.42
2024-01-05T22:03:49.962Z,87.81
2024-01-05T22:06:16.558Z,88.06
2024-01-05T22:08:43.065Z,87.72
2024-01-05T22:11:09.690Z,88.01
2024-01-05T22:13:36.609Z,88.61
2024-01-05T22:16:03.819Z,88.87
2024-01-05T22:18:32.767Z,88.36
2024-01-05T22:21:00.610Z,87.66
2024-01-05T22:23:27.072Z,88.54
2024-01-05T22:25:53.566Z,88.40
2024-01-05T22:28:19.961Z,87.20
2024-01-05T22:30:46.497Z,86.93
2024-01-05T22:33:13.057Z,87.32
2024-01-05T22:35:39.550Z,87.33
2024-01-05T22:38:06.036Z,87.65
2024-01-05T22:40:32.513Z,87.14
2024-01-05T22:42:58.945Z,87.61
2024-01-05T22:45:25.419Z,87.10
2024-01-05T22:47:52.569Z,88.33
2024-01-05T22:50:19.429Z,88.02
2024-01-05T22:52:45.925Z,86.99
2024-01-05T22:55:12.495Z,87.00
2024-01-05T22:57:39.179Z,87.34
2024-01-05T23:00:13.614Z,87.76
2024-01-05T23:02:40.106Z,87.77
2024-01-05T23:05:06.677Z,88.56
2024-01-05T23:07:33.338Z,88.60
2024-01-05T23:09:59.925Z,88.64
2024-01-05T23:12:27.884Z,87.97
2024-01-05T23:14:54.509Z,88.68
2024-01-05T23:17:20.941Z,88.19
2024-01-05T23:19:47.543Z,88.84
2024-01-05T23:22:13.975Z,88.81
2024-01-05T23:24:40.896Z,89.12
2024-01-05T23:27:07.807Z,88.77
2024-01-05T23:29:34.494Z,88.71
2024-01-05T23:32:00.913Z,89.07
2024-01-05T23:34:27.561Z,88.75
2024-01-05T23:36:55.137Z,88.29
2024-01-05T23:39:21.664Z,89.08
2024-01-05T23:41:48.133Z,88.45
2024-01-05T23:44:14.570Z,88.38
2024-01-05T23:46:40.993Z,89.35
2024-01-05T23:49:07.673Z,89.64
2024-01-05T23:51:34.285Z,89.47
2024-01-05T23:54:00.757Z,89.74
2024-01-05T23:56:28.289Z,90.15
2024-01-05T23:58:54.834Z,89.83
